sensor_id;sensor_type;location;lat;lon;timestamp;pressure;altitude;pressure_sealevel;temperature;humidity
59493;BME280;45497;43.996;22.876;2023-02-18T00:01:54;101804.78;;;10.64;36.99
59493;BME280;45497;43.996;22.876;2023-02-18T00:04:20;101808.00;;;10.67;37.06
59493;BME280;45497;43.996;22.876;2023-02-18T00:06:45;101818.19;;;10.62;37.15
59493;BME280;45497;43.996;22.876;2023-02-18T00:09:11;101806.63;;;10.63;36.94
59493;BME280;45497;43.996;22.876;2023-02-18T00:11:37;101812.19;;;10.70;37.07
59493;BME280;45497;43.996;22.876;2023-02-18T00:14:05;101806.88;;;10.70;37.26
59493;BME280;45497;43.996;22.876;2023-02-18T00:16:30;101805.47;;;10.66;37.27
59493;BME280;45497;43.996;22.876;2023-02-18T00:18:58;101810.50;;;10.69;37.00
59493;BME280;45497;43.996;22.876;2023-02-18T00:21:23;101805.34;;;10.67;37.32
59493;BME280;45497;43.996;22.876;2023-02-18T00:23:49;101805.53;;;10.56;37.55
59493;BME280;45497;43.996;22.876;2023-02-18T00:26:16;101804.84;;;10.54;37.40
59493;BME280;45497;43.996;22.876;2023-02-18T00:28:42;101804.56;;;10.47;37.37
59493;BME280;45497;43.996;22.876;2023-02-18T00:31:16;101796.19;;;10.42;37.82
59493;BME280;45497;43.996;22.876;2023-02-18T00:33:42;101793.41;;;10.44;37.67
59493;BME280;45497;43.996;22.876;2023-02-18T00:36:13;101795.78;;;10.47;37.64
59493;BME280;45497;43.996;22.876;2023-02-18T00:38:46;101798.25;;;10.58;37.52
59493;BME280;45497;43.996;22.876;2023-02-18T00:41:13;101793.38;;;10.63;37.52
59493;BME280;45497;43.996;22.876;2023-02-18T00:43:38;101788.06;;;10.63;37.32
59493;BME280;45497;43.996;22.876;2023-02-18T00:46:04;101795.31;;;10.61;37.43
59493;BME280;45497;43.996;22.876;2023-02-18T00:48:30;101783.34;;;10.57;37.60
59493;BME280;45497;43.996;22.876;2023-02-18T00:50:56;101777.16;;;10.66;37.34
59493;BME280;45497;43.996;22.876;2023-02-18T00:53:21;101782.03;;;10.71;37.25
59493;BME280;45497;43.996;22.876;2023-02-18T00:55:47;101767.25;;;10.68;37.21
59493;BME280;45497;43.996;22.876;2023-02-18T00:58:13;101767.53;;;10.75;36.93
59493;BME280;45497;43.996;22.876;2023-02-18T01:00:39;101777.66;;;10.89;36.76
59493;BME280;45497;43.996;22.876;2023-02-18T01:03:05;101783.34;;;10.95;36.66
59493;BME280;45497;43.996;22.876;2023-02-18T01:05:34;101774.41;;;10.96;36.49
59493;BME280;45497;43.996;22.876;2023-02-18T01:08:00;101782.91;;;10.99;36.52
59493;BME280;45497;43.996;22.876;2023-02-18T01:10:25;101769.34;;;11.02;36.47
59493;BME280;45497;43.996;22.876;2023-02-18T01:12:51;101757.47;;;11.06;36.29
59493;BME280;45497;43.996;22.876;2023-02-18T01:15:17;101756.56;;;11.16;36.04
59493;BME280;45497;43.996;22.876;2023-02-18T01:17:42;101752.47;;;11.21;36.35
59493;BME280;45497;43.996;22.876;2023-02-18T01:20:09;101747.72;;;11.25;36.48
59493;BME280;45497;43.996;22.876;2023-02-18T01:22:36;101750.88;;;11.38;36.00
59493;BME280;45497;43.996;22.876;2023-02-18T01:25:01;101735.22;;;11.35;36.14
59493;BME280;45497;43.996;22.876;2023-02-18T01:27:27;101741.47;;;11.44;36.00
59493;BME280;45497;43.996;22.876;2023-02-18T01:29:53;101745.31;;;11.50;35.67
59493;BME280;45497;43.996;22.876;2023-02-18T01:32:19;101737.06;;;11.53;35.62
59493;BME280;45497;43.996;22.876;2023-02-18T01:34:44;101740.69;;;11.52;35.50
59493;BME280;45497;43.996;22.876;2023-02-18T01:37:11;101742.22;;;11.54;35.63
59493;BME280;45497;43.996;22.876;2023-02-18T01:39:36;101734.03;;;11.47;35.36
59493;BME280;45497;43.996;22.876;2023-02-18T01:42:02;101734.28;;;11.54;35.62
59493;BME280;45497;43.996;22.876;2023-02-18T01:44:28;101733.78;;;11.59;35.46
59493;BME280;45497;43.996;22.876;2023-02-18T01:46:54;101718.25;;;11.64;35.50
59493;BME280;45497;43.996;22.876;2023-02-18T01:49:24;101724.47;;;11.73;35.53
59493;BME280;45497;43.996;22.876;2023-02-18T01:52:11;101712.53;;;11.77;35.78
59493;BME280;45497;43.996;22.876;2023-02-18T01:55:01;101711.19;;;11.73;36.09
59493;BME280;45497;43.996;22.876;2023-02-18T01:57:30;101711.47;;;11.70;36.04
59493;BME280;45497;43.996;22.876;2023-02-18T02:00:18;101725.97;;;11.75;35.71
59493;BME280;45497;43.996;22.876;2023-02-18T02:02:49;101713.47;;;11.67;35.83
59493;BME280;45497;43.996;22.876;2023-02-18T02:05:16;101719.44;;;11.70;35.90
59493;BME280;45497;43.996;22.876;2023-02-18T02:07:43;101727.56;;;11.68;35.86
59493;BME280;45497;43.996;22.876;2023-02-18T02:10:11;101715.28;;;11.67;35.54
59493;BME280;45497;43.996;22.876;2023-02-18T02:13:05;101712.69;;;11.75;35.53
59493;BME280;45497;43.996;22.876;2023-02-18T02:15:49;101715.06;;;11.78;35.56
59493;BME280;45497;43.996;22.876;2023-02-18T02:24:18;101721.97;;;11.71;35.10
59493;BME280;45497;43.996;22.876;2023-02-18T02:27:04;101725.69;;;11.78;34.96
59493;BME280;45497;43.996;22.876;2023-02-18T02:32:50;101730.56;;;12.27;38.71
59493;BME280;45497;43.996;22.876;2023-02-18T02:37:59;101723.84;;;11.97;34.87
59493;BME280;45497;43.996;22.876;2023-02-18T02:50:47;101712.84;;;11.92;34.48
59493;BME280;45497;43.996;22.876;2023-02-18T02:53:22;101723.34;;;11.93;34.29
59493;BME280;45497;43.996;22.876;2023-02-18T02:55:48;101725.44;;;11.90;34.43
59493;BME280;45497;43.996;22.876;2023-02-18T02:58:16;101727.34;;;11.79;34.61
59493;BME280;45497;43.996;22.876;2023-02-18T03:12:52;101726.81;;;11.94;34.50
59493;BME280;45497;43.996;22.876;2023-02-18T03:14:55;101707.31;;;12.03;34.01
59493;BME280;45497;43.996;22.876;2023-02-18T03:17:30;101699.75;;;12.16;34.41
59493;BME280;45497;43.996;22.876;2023-02-18T03:20:08;101686.84;;;12.21;34.59
59493;BME280;45497;43.996;22.876;2023-02-18T03:22:38;101679.06;;;12.28;34.85
59493;BME280;45497;43.996;22.876;2023-02-18T03:25:06;101687.91;;;12.37;34.36
59493;BME280;45497;43.996;22.876;2023-02-18T03:27:41;101701.84;;;12.31;34.05
59493;BME280;45497;43.996;22.876;2023-02-18T03:30:15;101692.09;;;12.39;34.11
59493;BME280;45497;43.996;22.876;2023-02-18T03:32:44;101686.41;;;12.34;34.26
59493;BME280;45497;43.996;22.876;2023-02-18T03:35:13;101686.13;;;12.46;33.84
59493;BME280;45497;43.996;22.876;2023-02-18T03:37:47;101697.63;;;12.54;34.02
59493;BME280;45497;43.996;22.876;2023-02-18T03:40:16;101699.47;;;12.54;33.70
59493;BME280;45497;43.996;22.876;2023-02-18T03:42:42;101683.38;;;12.63;33.56
59493;BME280;45497;43.996;22.876;2023-02-18T03:45:07;101682.09;;;12.68;33.82
59493;BME280;45497;43.996;22.876;2023-02-18T03:47:33;101679.09;;;12.71;33.47
59493;BME280;45497;43.996;22.876;2023-02-18T03:49:58;101691.13;;;12.83;33.39
59493;BME280;45497;43.996;22.876;2023-02-18T03:52:24;101685.31;;;12.88;33.48
59493;BME280;45497;43.996;22.876;2023-02-18T03:54:49;101690.16;;;12.92;34.08
59493;BME280;45497;43.996;22.876;2023-02-18T03:57:15;101693.81;;;12.91;33.51
59493;BME280;45497;43.996;22.876;2023-02-18T03:59:40;101691.28;;;12.81;33.83
59493;BME280;45497;43.996;22.876;2023-02-18T04:02:06;101682.16;;;12.84;33.42
59493;BME280;45497;43.996;22.876;2023-02-18T04:04:31;101679.50;;;12.92;34.01
59493;BME280;45497;43.996;22.876;2023-02-18T04:06:57;101666.69;;;12.88;33.41
59493;BME280;45497;43.996;22.876;2023-02-18T04:09:23;101667.41;;;13.06;33.96
59493;BME280;45497;43.996;22.876;2023-02-18T04:11:48;101658.44;;;13.07;34.00
59493;BME280;45497;43.996;22.876;2023-02-18T04:14:14;101666.25;;;13.17;33.94
59493;BME280;45497;43.996;22.876;2023-02-18T04:16:40;101670.56;;;13.18;33.86
59493;BME280;45497;43.996;22.876;2023-02-18T04:19:05;101672.09;;;13.20;33.44
59493;BME280;45497;43.996;22.876;2023-02-18T04:21:32;101669.06;;;13.15;33.24
59493;BME280;45497;43.996;22.876;2023-02-18T04:23:58;101674.09;;;13.18;32.91
59493;BME280;45497;43.996;22.876;2023-02-18T04:26:24;101668.59;;;13.20;33.05
59493;BME280;45497;43.996;22.876;2023-02-18T04:28:50;101676.88;;;13.09;32.77
59493;BME280;45497;43.996;22.876;2023-02-18T04:31:15;101680.31;;;12.85;33.07
59493;BME280;45497;43.996;22.876;2023-02-18T04:33:41;101677.13;;;12.81;32.97
59493;BME280;45497;43.996;22.876;2023-02-18T04:36:07;101662.03;;;12.90;32.58
59493;BME280;45497;43.996;22.876;2023-02-18T04:38:32;101655.53;;;12.92;32.69
59493;BME280;45497;43.996;22.876;2023-02-18T04:40:58;101659.72;;;13.03;32.32
59493;BME280;45497;43.996;22.876;2023-02-18T04:43:23;101657.94;;;13.04;32.64
59493;BME280;45497;43.996;22.876;2023-02-18T04:45:49;101654.44;;;13.11;32.28
59493;BME280;45497;43.996;22.876;2023-02-18T04:48:14;101648.78;;;13.23;32.62
59493;BME280;45497;43.996;22.876;2023-02-18T04:50:40;101645.13;;;13.15;32.50
59493;BME280;45497;43.996;22.876;2023-02-18T04:53:05;101631.84;;;13.24;32.09
59493;BME280;45497;43.996;22.876;2023-02-18T04:55:31;101633.16;;;13.28;32.11
59493;BME280;45497;43.996;22.876;2023-02-18T04:57:56;101648.97;;;13.13;32.34
59493;BME280;45497;43.996;22.876;2023-02-18T05:00:22;101655.25;;;13.04;32.49
59493;BME280;45497;43.996;22.876;2023-02-18T05:02:47;101653.28;;;13.06;32.65
59493;BME280;45497;43.996;22.876;2023-02-18T05:05:13;101658.44;;;13.07;32.76
59493;BME280;45497;43.996;22.876;2023-02-18T05:07:39;101651.78;;;13.11;32.66
59493;BME280;45497;43.996;22.876;2023-02-18T05:10:07;101658.25;;;13.09;32.95
59493;BME280;45497;43.996;22.876;2023-02-18T05:12:33;101657.41;;;13.08;32.90
59493;BME280;45497;43.996;22.876;2023-02-18T05:14:58;101656.28;;;13.11;32.61
59493;BME280;45497;43.996;22.876;2023-02-18T05:17:24;101654.59;;;13.10;32.34
59493;BME280;45497;43.996;22.876;2023-02-18T05:19:49;101654.59;;;13.10;32.36
59493;BME280;45497;43.996;22.876;2023-02-18T05:22:17;101659.56;;;12.96;32.40
59493;BME280;45497;43.996;22.876;2023-02-18T05:24:42;101660.59;;;13.12;32.54
59493;BME280;45497;43.996;22.876;2023-02-18T05:27:07;101653.91;;;12.99;32.60
59493;BME280;45497;43.996;22.876;2023-02-18T05:29:33;101652.06;;;12.92;32.50
59493;BME280;45497;43.996;22.876;2023-02-18T05:31:58;101670.72;;;13.08;32.56
59493;BME280;45497;43.996;22.876;2023-02-18T05:34:24;101665.22;;;13.01;32.51
59493;BME280;45497;43.996;22.876;2023-02-18T05:36:49;101662.91;;;13.07;32.46
59493;BME280;45497;43.996;22.876;2023-02-18T05:39:15;101661.41;;;13.04;32.28
59493;BME280;45497;43.996;22.876;2023-02-18T05:41:40;101663.06;;;13.05;32.55
59493;BME280;45497;43.996;22.876;2023-02-18T05:44:06;101665.56;;;12.98;32.72
59493;BME280;45497;43.996;22.876;2023-02-18T05:46:50;101659.94;;;13.10;32.77
59493;BME280;45497;43.996;22.876;2023-02-18T05:49:15;101658.75;;;13.04;32.75
59493;BME280;45497;43.996;22.876;2023-02-18T05:51:41;101652.13;;;13.16;32.64
59493;BME280;45497;43.996;22.876;2023-02-18T05:54:06;101652.63;;;13.28;32.33
59493;BME280;45497;43.996;22.876;2023-02-18T05:56:32;101662.94;;;13.23;32.35
59493;BME280;45497;43.996;22.876;2023-02-18T05:58:57;101666.75;;;13.20;32.02
59493;BME280;45497;43.996;22.876;2023-02-18T06:01:23;101657.94;;;13.20;32.13
59493;BME280;45497;43.996;22.876;2023-02-18T06:03:48;101655.59;;;13.25;32.18
59493;BME280;45497;43.996;22.876;2023-02-18T06:06:14;101650.63;;;13.30;32.02
59493;BME280;45497;43.996;22.876;2023-02-18T06:08:39;101649.50;;;13.41;31.94
59493;BME280;45497;43.996;22.876;2023-02-18T06:11:05;101650.00;;;13.36;31.54
59493;BME280;45497;43.996;22.876;2023-02-18T06:13:30;101659.31;;;13.41;31.67
59493;BME280;45497;43.996;22.876;2023-02-18T06:15:55;101658.50;;;13.48;31.77
59493;BME280;45497;43.996;22.876;2023-02-18T06:18:21;101652.34;;;13.48;31.27
59493;BME280;45497;43.996;22.876;2023-02-18T06:20:48;101658.69;;;13.63;31.24
59493;BME280;45497;43.996;22.876;2023-02-18T06:23:13;101660.66;;;13.61;31.15
59493;BME280;45497;43.996;22.876;2023-02-18T06:25:40;101663.81;;;13.65;31.27
59493;BME280;45497;43.996;22.876;2023-02-18T06:28:05;101672.31;;;13.60;31.36
59493;BME280;45497;43.996;22.876;2023-02-18T06:30:31;101664.50;;;13.67;31.50
59493;BME280;45497;43.996;22.876;2023-02-18T06:32:56;101667.69;;;13.70;31.42
59493;BME280;45497;43.996;22.876;2023-02-18T06:35:22;101673.66;;;13.64;31.31
59493;BME280;45497;43.996;22.876;2023-02-18T06:37:47;101666.81;;;13.70;31.50
59493;BME280;45497;43.996;22.876;2023-02-18T06:40:13;101672.81;;;13.80;31.28
59493;BME280;45497;43.996;22.876;2023-02-18T06:42:38;101667.66;;;13.87;31.49
59493;BME280;45497;43.996;22.876;2023-02-18T06:45:04;101668.97;;;13.91;31.56
59493;BME280;45497;43.996;22.876;2023-02-18T06:47:31;101669.63;;;13.93;31.57
59493;BME280;45497;43.996;22.876;2023-02-18T06:49:57;101668.28;;;14.05;32.04
59493;BME280;45497;43.996;22.876;2023-02-18T06:52:22;101657.47;;;13.99;32.00
59493;BME280;45497;43.996;22.876;2023-02-18T06:54:48;101672.28;;;14.09;31.92
59493;BME280;45497;43.996;22.876;2023-02-18T06:57:13;101673.25;;;14.17;31.61
59493;BME280;45497;43.996;22.876;2023-02-18T06:59:38;101679.28;;;14.10;31.49
59493;BME280;45497;43.996;22.876;2023-02-18T07:02:04;101674.13;;;14.01;31.61
59493;BME280;45497;43.996;22.876;2023-02-18T07:04:29;101678.78;;;13.99;31.92
59493;BME280;45497;43.996;22.876;2023-02-18T07:06:55;101691.44;;;14.13;31.59
59493;BME280;45497;43.996;22.876;2023-02-18T07:09:20;101685.13;;;13.98;31.95
59493;BME280;45497;43.996;22.876;2023-02-18T07:11:46;101681.63;;;14.13;32.00
59493;BME280;45497;43.996;22.876;2023-02-18T07:14:12;101686.13;;;14.05;31.40
59493;BME280;45497;43.996;22.876;2023-02-18T07:16:37;101691.78;;;14.02;31.62
59493;BME280;45497;43.996;22.876;2023-02-18T07:19:02;101690.28;;;14.07;31.47
59493;BME280;45497;43.996;22.876;2023-02-18T07:21:28;101687.94;;;14.12;31.49
59493;BME280;45497;43.996;22.876;2023-02-18T07:23:53;101686.97;;;14.13;31.13
59493;BME280;45497;43.996;22.876;2023-02-18T07:26:19;101686.91;;;14.30;31.04
59493;BME280;45497;43.996;22.876;2023-02-18T07:28:44;101700.19;;;14.46;30.77
59493;BME280;45497;43.996;22.876;2023-02-18T07:31:10;101702.75;;;14.31;30.93
59493;BME280;45497;43.996;22.876;2023-02-18T07:33:36;101694.03;;;14.46;30.98
59493;BME280;45497;43.996;22.876;2023-02-18T07:36:01;101698.25;;;14.32;30.49
59493;BME280;45497;43.996;22.876;2023-02-18T07:38:28;101706.03;;;14.42;30.91
59493;BME280;45497;43.996;22.876;2023-02-18T07:40:54;101706.03;;;14.42;30.69
59493;BME280;45497;43.996;22.876;2023-02-18T07:43:20;101714.91;;;14.34;30.68
59493;BME280;45497;43.996;22.876;2023-02-18T07:45:46;101709.38;;;14.44;30.65
59493;BME280;45497;43.996;22.876;2023-02-18T07:48:12;101708.72;;;14.42;30.97
59493;BME280;45497;43.996;22.876;2023-02-18T07:50:42;101701.72;;;14.41;30.73
59493;BME280;45497;43.996;22.876;2023-02-18T07:53:09;101709.41;;;14.36;31.06
59493;BME280;45497;43.996;22.876;2023-02-18T07:55:36;101708.09;;;14.31;31.02
59493;BME280;45497;43.996;22.876;2023-02-18T07:58:25;101707.25;;;14.23;31.00
59493;BME280;45497;43.996;22.876;2023-02-18T08:00:52;101725.72;;;14.41;30.95
59493;BME280;45497;43.996;22.876;2023-02-18T08:03:20;101726.56;;;14.41;31.25
59493;BME280;45497;43.996;22.876;2023-02-18T08:05:48;101722.22;;;14.40;30.86
59493;BME280;45497;43.996;22.876;2023-02-18T08:08:16;101720.72;;;14.38;31.07
59493;BME280;45497;43.996;22.876;2023-02-18T08:10:42;101722.41;;;14.30;31.10
59493;BME280;45497;43.996;22.876;2023-02-18T08:13:08;101732.38;;;14.37;30.86
59493;BME280;45497;43.996;22.876;2023-02-18T08:15:34;101715.88;;;14.41;30.83
59493;BME280;45497;43.996;22.876;2023-02-18T08:18:00;101726.53;;;14.49;30.89
59493;BME280;45497;43.996;22.876;2023-02-18T08:20:26;101732.88;;;14.48;30.97
59493;BME280;45497;43.996;22.876;2023-02-18T08:22:52;101728.34;;;14.57;30.66
59493;BME280;45497;43.996;22.876;2023-02-18T08:25:17;101733.03;;;14.55;30.79
59493;BME280;45497;43.996;22.876;2023-02-18T08:27:42;101725.69;;;14.57;30.88
59493;BME280;45497;43.996;22.876;2023-02-18T08:30:08;101732.13;;;14.87;30.63
59493;BME280;45497;43.996;22.876;2023-02-18T08:32:34;101730.16;;;15.13;30.57
59493;BME280;45497;43.996;22.876;2023-02-18T08:35:00;101721.13;;;15.14;30.13
59493;BME280;45497;43.996;22.876;2023-02-18T08:37:26;101716.91;;;15.19;30.57
59493;BME280;45497;43.996;22.876;2023-02-18T08:39:51;101722.75;;;15.23;30.20
59493;BME280;45497;43.996;22.876;2023-02-18T08:42:17;101707.56;;;15.23;30.19
59493;BME280;45497;43.996;22.876;2023-02-18T08:44:42;101707.97;;;15.35;30.44
59493;BME280;45497;43.996;22.876;2023-02-18T08:47:08;101719.16;;;15.39;30.17
59493;BME280;45497;43.996;22.876;2023-02-18T08:49:33;101730.63;;;15.47;30.28
59493;BME280;45497;43.996;22.876;2023-02-18T08:52:01;101732.47;;;15.47;30.10
59493;BME280;45497;43.996;22.876;2023-02-18T08:54:27;101720.56;;;15.49;30.19
59493;BME280;45497;43.996;22.876;2023-02-18T08:56:54;101722.47;;;15.64;29.74
59493;BME280;45497;43.996;22.876;2023-02-18T08:59:20;101723.78;;;15.68;29.73
59493;BME280;45497;43.996;22.876;2023-02-18T09:01:45;101723.50;;;15.86;29.95
59493;BME280;45497;43.996;22.876;2023-02-18T09:04:11;101722.75;;;15.77;29.18
59493;BME280;45497;43.996;22.876;2023-02-18T09:06:37;101712.56;;;15.73;29.34
59493;BME280;45497;43.996;22.876;2023-02-18T09:09:03;101710.53;;;15.98;30.01
59493;BME280;45497;43.996;22.876;2023-02-18T09:11:28;101731.03;;;15.82;28.92
59493;BME280;45497;43.996;22.876;2023-02-18T09:13:54;101725.09;;;15.95;28.93
59493;BME280;45497;43.996;22.876;2023-02-18T09:16:19;101725.19;;;16.02;29.05
59493;BME280;45497;43.996;22.876;2023-02-18T09:18:46;101719.66;;;15.89;28.82
59493;BME280;45497;43.996;22.876;2023-02-18T09:21:14;101736.38;;;16.05;28.82
59493;BME280;45497;43.996;22.876;2023-02-18T09:23:40;101741.97;;;15.96;28.74
59493;BME280;45497;43.996;22.876;2023-02-18T09:26:08;101737.00;;;16.08;28.56
59493;BME280;45497;43.996;22.876;2023-02-18T09:28:35;101720.88;;;16.01;28.83
59493;BME280;45497;43.996;22.876;2023-02-18T09:33:30;101733.25;;;16.17;28.51
59493;BME280;45497;43.996;22.876;2023-02-18T09:35:56;101722.94;;;16.29;28.74
59493;BME280;45497;43.996;22.876;2023-02-18T09:38:21;101731.03;;;16.20;28.67
59493;BME280;45497;43.996;22.876;2023-02-18T09:40:51;101728.47;;;16.12;28.48
59493;BME280;45497;43.996;22.876;2023-02-18T09:43:47;101730.03;;;16.36;28.43
59493;BME280;45497;43.996;22.876;2023-02-18T09:46:20;101734.97;;;16.48;28.60
59493;BME280;45497;43.996;22.876;2023-02-18T09:48:47;101744.47;;;16.50;28.80
59493;BME280;45497;43.996;22.876;2023-02-18T09:51:14;101728.94;;;16.46;28.73
59493;BME280;45497;43.996;22.876;2023-02-18T09:53:42;101719.44;;;16.43;28.47
59493;BME280;45497;43.996;22.876;2023-02-18T09:56:17;101709.38;;;16.45;28.53
59493;BME280;45497;43.996;22.876;2023-02-18T09:58:46;101711.22;;;16.59;29.27
59493;BME280;45497;43.996;22.876;2023-02-18T10:01:19;101693.41;;;16.67;28.49
59493;BME280;45497;43.996;22.876;2023-02-18T10:03:46;101694.59;;;16.79;28.79
59493;BME280;45497;43.996;22.876;2023-02-18T10:06:29;101703.66;;;16.93;28.30
59493;BME280;45497;43.996;22.876;2023-02-18T10:08:57;101703.63;;;17.08;28.09
59493;BME280;45497;43.996;22.876;2023-02-18T10:11:41;101695.59;;;17.08;28.00
59493;BME280;45497;43.996;22.876;2023-02-18T10:14:12;101694.00;;;17.13;27.85
59493;BME280;45497;43.996;22.876;2023-02-18T10:16:38;101705.94;;;17.11;27.53
59493;BME280;45497;43.996;22.876;2023-02-18T10:19:33;101706.56;;;17.13;27.67
59493;BME280;45497;43.996;22.876;2023-02-18T10:22:01;101704.28;;;17.31;27.62
59493;BME280;45497;43.996;22.876;2023-02-18T10:24:43;101696.16;;;17.25;27.35
59493;BME280;45497;43.996;22.876;2023-02-18T10:27:17;101697.66;;;17.27;27.55
59493;BME280;45497;43.996;22.876;2023-02-18T10:29:43;101691.06;;;17.30;27.26
59493;BME280;45497;43.996;22.876;2023-02-18T10:32:16;101667.91;;;17.44;27.21
59493;BME280;45497;43.996;22.876;2023-02-18T10:37:23;101683.66;;;17.75;26.70
59493;BME280;45497;43.996;22.876;2023-02-18T10:50:51;101656.28;;;17.58;26.56
59493;BME280;45497;43.996;22.876;2023-02-18T10:53:33;101648.97;;;17.73;26.50
59493;BME280;45497;43.996;22.876;2023-02-18T10:56:00;101647.09;;;17.67;26.45
59493;BME280;45497;43.996;22.876;2023-02-18T10:58:31;101657.44;;;17.49;26.51
59493;BME280;45497;43.996;22.876;2023-02-18T11:00:58;101662.09;;;17.62;27.02
59493;BME280;45497;43.996;22.876;2023-02-18T11:03:35;101647.44;;;17.57;26.89
59493;BME280;45497;43.996;22.876;2023-02-18T11:06:03;101641.03;;;17.37;26.80
59493;BME280;45497;43.996;22.876;2023-02-18T11:08:36;101649.22;;;17.50;26.75
59493;BME280;45497;43.996;22.876;2023-02-18T11:11:37;101636.66;;;17.79;26.62
59493;BME280;45497;43.996;22.876;2023-02-18T11:14:03;101641.31;;;17.92;26.58
59493;BME280;45497;43.996;22.876;2023-02-18T11:16:44;101641.19;;;17.78;26.61
59493;BME280;45497;43.996;22.876;2023-02-18T11:19:33;101638.84;;;17.69;26.78
59493;BME280;45497;43.996;22.876;2023-02-18T11:24:44;101633.16;;;18.07;26.72
59493;BME280;45497;43.996;22.876;2023-02-18T11:27:43;101622.72;;;18.19;26.63
59493;BME280;45497;43.996;22.876;2023-02-18T11:30:25;101630.53;;;18.20;26.60
59493;BME280;45497;43.996;22.876;2023-02-18T11:33:02;101633.88;;;18.29;26.78
59493;BME280;45497;43.996;22.876;2023-02-18T11:35:31;101631.06;;;18.02;26.61
59493;BME280;45497;43.996;22.876;2023-02-18T11:37:58;101630.88;;;17.82;26.98
59493;BME280;45497;43.996;22.876;2023-02-18T11:40:33;101611.50;;;18.08;27.20
59493;BME280;45497;43.996;22.876;2023-02-18T11:43:19;101599.53;;;18.11;27.18
59493;BME280;45497;43.996;22.876;2023-02-18T11:45:45;101602.53;;;18.29;27.16
59493;BME280;45497;43.996;22.876;2023-02-18T11:48:29;101605.53;;;18.13;27.24
59493;BME280;45497;43.996;22.876;2023-02-18T11:51:00;101597.72;;;18.18;27.42
59493;BME280;45497;43.996;22.876;2023-02-18T11:53:30;101589.31;;;18.28;27.22
59493;BME280;45497;43.996;22.876;2023-02-18T11:55:58;101596.75;;;18.32;27.68
59493;BME280;45497;43.996;22.876;2023-02-18T11:58:25;101593.63;;;18.29;27.41
59493;BME280;45497;43.996;22.876;2023-02-18T12:00:55;101597.56;;;18.26;27.04
59493;BME280;45497;43.996;22.876;2023-02-18T12:04:00;101586.59;;;18.21;27.26
59493;BME280;45497;43.996;22.876;2023-02-18T12:06:31;101598.91;;;18.09;27.64
59493;BME280;45497;43.996;22.876;2023-02-18T12:09:05;101600.03;;;18.28;27.63
59493;BME280;45497;43.996;22.876;2023-02-18T12:11:36;101598.75;;;18.24;27.44
59493;BME280;45497;43.996;22.876;2023-02-18T12:14:07;101591.31;;;18.19;27.44
59493;BME280;45497;43.996;22.876;2023-02-18T12:31:09;101571.16;;;18.30;27.78
59493;BME280;45497;43.996;22.876;2023-02-18T12:41:53;101580.41;;;18.21;28.05
59493;BME280;45497;43.996;22.876;2023-02-18T13:01:39;101563.94;;;18.37;27.76
59493;BME280;45497;43.996;22.876;2023-02-18T13:07:22;101569.13;;;18.39;28.15
59493;BME280;45497;43.996;22.876;2023-02-18T13:10:20;101566.59;;;18.30;28.09
59493;BME280;45497;43.996;22.876;2023-02-18T13:13:03;101556.06;;;18.22;28.36
59493;BME280;45497;43.996;22.876;2023-02-18T13:18:00;101556.88;;;18.23;28.35
59493;BME280;45497;43.996;22.876;2023-02-18T13:20:44;101557.91;;;18.28;27.82
59493;BME280;45497;43.996;22.876;2023-02-18T13:23:17;101552.59;;;18.35;27.83
59493;BME280;45497;43.996;22.876;2023-02-18T13:25:43;101555.28;;;18.42;28.14
59493;BME280;45497;43.996;22.876;2023-02-18T13:31:18;101557.97;;;18.42;27.48
59493;BME280;45497;43.996;22.876;2023-02-18T13:33:55;101547.44;;;18.47;27.90
59493;BME280;45497;43.996;22.876;2023-02-18T13:39:18;101532.59;;;18.58;27.73
59493;BME280;45497;43.996;22.876;2023-02-18T13:41:47;101527.06;;;18.66;27.85
59493;BME280;45497;43.996;22.876;2023-02-18T13:46:53;101534.09;;;18.80;27.60
59493;BME280;45497;43.996;22.876;2023-02-18T13:49:26;101527.34;;;18.91;27.71
59493;BME280;45497;43.996;22.876;2023-02-18T13:51:56;101532.06;;;18.82;28.42
59493;BME280;45497;43.996;22.876;2023-02-18T13:54:30;101537.88;;;18.86;27.96
59493;BME280;45497;43.996;22.876;2023-02-18T13:57:33;101535.19;;;18.93;28.01
59493;BME280;45497;43.996;22.876;2023-02-18T13:59:58;101534.94;;;18.81;28.99
59493;BME280;45497;43.996;22.876;2023-02-18T14:02:31;101525.44;;;18.85;28.97
59493;BME280;45497;43.996;22.876;2023-02-18T14:05:18;101533.22;;;18.53;29.72
59493;BME280;45497;43.996;22.876;2023-02-18T14:08:03;101521.66;;;18.59;29.56
59493;BME280;45497;43.996;22.876;2023-02-18T14:10:33;101533.41;;;18.58;29.80
59493;BME280;45497;43.996;22.876;2023-02-18T14:13:17;101520.25;;;18.70;29.52
59493;BME280;45497;43.996;22.876;2023-02-18T14:15:51;101526.44;;;18.70;29.75
59493;BME280;45497;43.996;22.876;2023-02-18T14:18:26;101509.13;;;18.86;29.67
59493;BME280;45497;43.996;22.876;2023-02-18T14:33:39;101515.31;;;18.80;30.14
59493;BME280;45497;43.996;22.876;2023-02-18T14:38:41;101523.09;;;18.55;30.80
59493;BME280;45497;43.996;22.876;2023-02-18T14:41:31;101510.91;;;18.59;30.83
59493;BME280;45497;43.996;22.876;2023-02-18T14:49:43;101503.84;;;18.31;31.98
59493;BME280;45497;43.996;22.876;2023-02-18T14:52:32;101511.47;;;18.34;31.98
59493;BME280;45497;43.996;22.876;2023-02-18T14:55:02;101489.97;;;18.21;32.11
59493;BME280;45497;43.996;22.876;2023-02-18T14:57:57;101486.50;;;18.34;31.88
59493;BME280;45497;43.996;22.876;2023-02-18T15:00:26;101498.91;;;18.35;31.99